createdAt,value
2023-05-06T00:00:40.642Z,3.75
2023-05-06T00:01:40.672Z,3.84
2023-05-06T00:02:40.738Z,4.09
2023-05-06T00:03:40.918Z,3.48
2023-05-06T00:04:40.814Z,3.54
2023-05-06T00:05:43.517Z,3.56
2023-05-06T00:06:40.827Z,4.06
2023-05-06T00:07:40.818Z,3.70
2023-05-06T00:08:40.813Z,3.73
2023-05-06T00:09:40.802Z,4.16
2023-05-06T00:10:40.799Z,4.25
2023-05-06T00:11:40.797Z,3.51
2023-05-06T00:12:40.830Z,3.72
2023-05-06T00:13:40.781Z,3.94
2023-05-06T00:14:40.772Z,3.92
2023-05-06T00:15:40.766Z,4.17
2023-05-06T00:16:40.866Z,3.50
2023-05-06T00:17:40.857Z,4.17
2023-05-06T00:18:40.741Z,4.09
2023-05-06T00:19:40.738Z,3.68
2023-05-06T00:20:40.725Z,3.66
2023-05-06T00:21:40.747Z,3.89
2023-05-06T00:22:40.722Z,3.45
2023-05-06T00:23:40.770Z,3.57
2023-05-06T00:24:40.720Z,3.39
2023-05-06T00:25:40.697Z,3.65
2023-05-06T00:26:40.690Z,3.53
2023-05-06T00:27:40.675Z,3.71
2023-05-06T00:28:40.682Z,3.43
2023-05-06T00:29:40.662Z,3.64
2023-05-06T00:30:40.652Z,3.46
2023-05-06T00:31:40.692Z,3.79
2023-05-06T00:32:40.672Z,3.86
2023-05-06T00:33:40.626Z,3.98
2023-05-06T00:34:40.628Z,3.13
2023-05-06T00:35:40.623Z,3.48
2023-05-06T00:36:43.547Z,3.91
2023-05-06T00:37:40.608Z,3.30
2023-05-06T00:38:40.677Z,3.76
2023-05-06T00:39:40.591Z,3.58
2023-05-06T00:40:40.592Z,3.81
2023-05-06T00:41:41.464Z,3.35
2023-05-06T00:42:40.569Z,3.42
2023-05-06T00:43:41.449Z,3.69
2023-05-06T00:44:40.565Z,3.36
2023-05-06T00:45:40.586Z,3.56
2023-05-06T00:46:40.543Z,3.86
2023-05-06T00:47:40.566Z,3.47
2023-05-06T00:48:41.488Z,3.55
2023-05-06T00:49:40.528Z,3.92
2023-05-06T00:50:40.512Z,3.72
2023-05-06T00:51:40.514Z,3.62
2023-05-06T00:52:40.564Z,3.87
2023-05-06T00:53:40.490Z,3.73
2023-05-06T00:54:40.489Z,3.29
2023-05-06T00:55:40.534Z,3.85
2023-05-06T00:56:40.479Z,3.14
2023-05-06T00:57:40.479Z,3.54
2023-05-06T00:58:40.467Z,3.57
2023-05-06T00:59:40.463Z,3.44
2023-05-06T01:00:40.498Z,3.24
2023-05-06T01:01:40.486Z,3.64
2023-05-06T01:02:47.117Z,3.41
2023-05-06T01:03:41.557Z,4.01
2023-05-06T01:04:40.477Z,3.68
2023-05-06T01:05:40.427Z,3.19
2023-05-06T01:06:40.431Z,3.49
2023-05-06T01:07:40.409Z,3.44
2023-05-06T01:08:40.463Z,3.56
2023-05-06T01:09:40.402Z,3.26
2023-05-06T01:10:40.396Z,3.80
2023-05-06T01:11:40.387Z,3.64
2023-05-06T01:12:40.426Z,3.57
2023-05-06T01:13:40.370Z,3.58
2023-05-06T01:14:40.371Z,4.12
2023-05-06T01:15:40.394Z,3.43
2023-05-06T01:16:40.477Z,3.69
2023-05-06T01:17:40.524Z,3.44
2023-05-06T01:18:40.551Z,3.24
2023-05-06T01:19:40.610Z,3.44
2023-05-06T01:20:40.652Z,3.82
2023-05-06T01:21:40.700Z,3.33
2023-05-06T01:22:40.756Z,3.37
2023-05-06T01:23:40.804Z,3.45
2023-05-06T01:24:40.961Z,3.67
2023-05-06T01:25:40.890Z,3.86
2023-05-06T01:26:40.942Z,3.82
2023-05-06T01:27:40.986Z,3.41
2023-05-06T01:28:41.040Z,3.40
2023-05-06T01:29:41.088Z,3.29
2023-05-06T01:30:41.116Z,3.42
2023-05-06T01:31:41.264Z,3.52
2023-05-06T01:32:41.261Z,3.26
2023-05-06T01:33:41.283Z,3.39
2023-05-06T01:34:41.336Z,3.56
2023-05-06T01:35:41.376Z,3.85
2023-05-06T01:36:41.430Z,3.10
2023-05-06T01:37:41.501Z,3.30
2023-05-06T01:38:41.523Z,3.23
2023-05-06T01:39:41.603Z,3.34
2023-05-06T01:40:41.687Z,3.06
2023-05-06T01:41:42.484Z,3.32
2023-05-06T01:42:41.740Z,2.84
2023-05-06T01:43:41.797Z,3.64
2023-05-06T01:44:41.861Z,2.95
2023-05-06T01:45:41.904Z,3.82
2023-05-06T01:46:41.987Z,3.10
2023-05-06T01:47:42.096Z,3.59
2023-05-06T01:48:42.151Z,3.22
2023-05-06T01:49:42.140Z,3.70
2023-05-06T01:50:42.180Z,3.72
2023-05-06T01:51:42.232Z,3.65
2023-05-06T01:52:42.278Z,3.51
2023-05-06T01:53:42.336Z,3.36
2023-05-06T01:54:42.443Z,3.11
2023-05-06T01:55:42.638Z,3.24
2023-05-06T01:56:42.567Z,3.71
2023-05-06T01:57:42.559Z,3.46
2023-05-06T01:58:42.616Z,3.67
2023-05-06T01:59:42.671Z,3.67
2023-05-06T02:00:42.708Z,3.43
2023-05-06T02:01:42.785Z,3.14
2023-05-06T02:02:43.004Z,3.92
2023-05-06T02:03:42.944Z,3.67
2023-05-06T02:04:42.927Z,3.25
2023-05-06T02:05:43.031Z,3.75
2023-05-06T02:06:43.090Z,3.15
2023-05-06T02:07:43.159Z,3.27
2023-05-06T02:08:43.139Z,3.54
2023-05-06T02:09:43.209Z,3.12
2023-05-06T02:10:43.362Z,3.70
2023-05-06T02:11:43.314Z,3.48
2023-05-06T02:12:43.447Z,3.38
2023-05-06T02:13:43.425Z,3.58
2023-05-06T02:14:43.488Z,3.39
2023-05-06T02:15:43.560Z,3.23
2023-05-06T02:16:43.579Z,3.08
2023-05-06T02:17:43.657Z,3.72
2023-05-06T02:18:43.749Z,3.43
2023-05-06T02:19:43.730Z,3.06
2023-05-06T02:20:43.794Z,3.39
2023-05-06T02:21:43.903Z,3.20
2023-05-06T02:22:43.922Z,3.26
2023-05-06T02:23:43.969Z,3.41
2023-05-06T02:24:43.999Z,3.23
2023-05-06T02:25:44.071Z,3.36
2023-05-06T02:26:44.127Z,3.01
2023-05-06T02:27:44.181Z,2.82
2023-05-06T02:28:44.301Z,3.10
2023-05-06T02:29:44.294Z,3.54
2023-05-06T02:30:44.352Z,2.97
2023-05-06T02:31:44.425Z,3.16
2023-05-06T02:32:44.580Z,3.27
2023-05-06T02:33:44.511Z,3.03
2023-05-06T02:34:44.557Z,2.97
2023-05-06T02:35:44.633Z,3.33
2023-05-06T02:36:44.673Z,3.43
2023-05-06T02:37:44.729Z,3.33
2023-05-06T02:38:44.886Z,3.12
2023-05-06T02:39:44.852Z,3.13
2023-05-06T02:40:44.931Z,3.13
2023-05-06T02:41:44.970Z,3.49
2023-05-06T02:42:45.071Z,3.19
2023-05-06T02:43:45.089Z,2.60
2023-05-06T02:44:45.203Z,3.12
2023-05-06T02:45:45.234Z,3.34
2023-05-06T02:46:45.267Z,3.00
2023-05-06T02:47:45.344Z,3.19
2023-05-06T02:48:45.386Z,3.04
2023-05-06T02:49:45.441Z,2.88
2023-05-06T02:50:45.498Z,3.68
2023-05-06T02:51:45.554Z,3.36
2023-05-06T02:52:45.626Z,3.86
2023-05-06T02:53:45.690Z,3.28
2023-05-06T02:54:45.855Z,2.94
2023-05-06T02:55:45.810Z,3.96
2023-05-06T02:56:45.860Z,3.47
2023-05-06T02:57:45.917Z,3.55
2023-05-06T02:58:45.976Z,3.07
2023-05-06T02:59:46.030Z,3.16
2023-05-06T03:00:46.106Z,3.21
2023-05-06T03:01:46.166Z,2.98
2023-05-06T03:02:46.205Z,3.19
2023-05-06T03:03:46.306Z,3.09
2023-05-06T03:04:49.011Z,2.97
2023-05-06T03:05:46.329Z,3.39
2023-05-06T03:06:46.321Z,3.49
2023-05-06T03:07:46.328Z,2.72
2023-05-06T03:08:46.309Z,2.84
2023-05-06T03:09:46.318Z,3.27
2023-05-06T03:10:46.289Z,3.32
2023-05-06T03:11:47.035Z,3.28
2023-05-06T03:12:46.299Z,2.76
2023-05-06T03:13:46.270Z,3.28
2023-05-06T03:14:46.252Z,2.85
2023-05-06T03:15:46.241Z,3.11
2023-05-06T03:16:46.322Z,3.62
2023-05-06T03:17:46.262Z,3.14
2023-05-06T03:18:46.241Z,3.07
2023-05-06T03:19:46.221Z,2.93
2023-05-06T03:20:46.219Z,2.87
2023-05-06T03:21:46.270Z,3.19
2023-05-06T03:22:47.024Z,3.58
2023-05-06T03:23:46.249Z,3.14
2023-05-06T03:24:46.200Z,2.97
2023-05-06T03:25:46.193Z,3.26
2023-05-06T03:26:46.186Z,3.32
2023-05-06T03:27:46.175Z,2.96
2023-05-06T03:28:46.169Z,2.89
2023-05-06T03:29:46.155Z,3.30
2023-05-06T03:30:46.175Z,3.41
2023-05-06T03:31:46.182Z,3.24
2023-05-06T03:32:46.158Z,3.37
2023-05-06T03:33:46.134Z,3.07
2023-05-06T03:34:46.131Z,3.00
2023-05-06T03:35:46.120Z,2.96
2023-05-06T03:36:46.120Z,2.32
2023-05-06T03:37:46.200Z,3.45
2023-05-06T03:38:46.216Z,3.18
2023-05-06T03:39:46.281Z,3.18
2023-05-06T03:40:46.350Z,2.48
2023-05-06T03:41:46.381Z,2.62
2023-05-06T03:42:46.434Z,2.84
2023-05-06T03:43:46.491Z,2.88
2023-05-06T03:44:46.548Z,2.90
2023-05-06T03:45:46.660Z,3.33
2023-05-06T03:46:46.655Z,2.82
2023-05-06T03:47:46.840Z,2.76
2023-05-06T03:48:46.821Z,2.72
2023-05-06T03:49:46.800Z,3.30
2023-05-06T03:50:46.944Z,3.14
2023-05-06T03:51:46.930Z,3.39
2023-05-06T03:52:46.996Z,3.28
2023-05-06T03:53:47.052Z,2.89
2023-05-06T03:54:47.105Z,3.10
2023-05-06T03:55:47.165Z,2.85
2023-05-06T03:56:47.225Z,2.79
2023-05-06T03:57:47.362Z,2.94
2023-05-06T03:58:47.541Z,3.09
2023-05-06T03:59:47.380Z,2.92
2023-05-06T04:00:47.438Z,3.11
2023-05-06T04:01:47.535Z,2.91
2023-05-06T04:02:47.594Z,3.05
2023-05-06T04:03:47.660Z,3.03
2023-05-06T04:04:47.715Z,3.07
2023-05-06T04:05:47.728Z,2.96
2023-05-06T04:06:47.781Z,2.77
2023-05-06T04:07:47.852Z,3.06
2023-05-06T04:08:47.893Z,3.25
2023-05-06T04:09:47.958Z,3.72
2023-05-06T04:10:48.019Z,3.17
2023-05-06T04:11:48.078Z,3.07
2023-05-06T04:12:48.149Z,3.17
2023-05-06T04:13:48.198Z,2.96
2023-05-06T04:14:48.246Z,2.43
2023-05-06T04:15:48.337Z,2.74
2023-05-06T04:16:48.373Z,2.73
2023-05-06T04:17:48.445Z,2.61
2023-05-06T04:18:48.478Z,2.82
2023-05-06T04:19:48.534Z,3.26
2023-05-06T04:20:49.059Z,3.07
2023-05-06T04:21:48.654Z,2.84
2023-05-06T04:22:48.713Z,2.98
2023-05-06T04:23:48.772Z,2.81
2023-05-06T04:24:48.829Z,2.87
2023-05-06T04:25:48.891Z,3.12
2023-05-06T04:26:48.948Z,2.75
2023-05-06T04:27:49.010Z,3.33
2023-05-06T04:28:49.071Z,2.71
2023-05-06T04:29:49.117Z,3.11
2023-05-06T04:30:49.157Z,2.90
2023-05-06T04:31:49.216Z,2.94
2023-05-06T04:32:49.262Z,3.15
2023-05-06T04:33:49.281Z,2.86
2023-05-06T04:34:49.317Z,2.82
2023-05-06T04:35:49.384Z,3.32
2023-05-06T04:36:49.509Z,2.95
2023-05-06T04:37:49.514Z,2.86
2023-05-06T04:38:49.559Z,2.49
2023-05-06T04:39:49.609Z,2.64
2023-05-06T04:40:49.659Z,2.86
2023-05-06T04:41:50.557Z,3.17
2023-05-06T04:42:49.725Z,3.00
2023-05-06T04:43:49.761Z,3.30
2023-05-06T04:44:49.797Z,2.87
2023-05-06T04:45:50.019Z,2.80
2023-05-06T04:46:49.905Z,2.84
2023-05-06T04:47:50.017Z,2.93
2023-05-06T04:48:50.045Z,2.72
2023-05-06T04:49:50.025Z,2.86
2023-05-06T04:50:50.071Z,2.87
2023-05-06T04:51:50.141Z,3.24
2023-05-06T04:52:50.263Z,2.91
2023-05-06T04:53:50.270Z,2.71
2023-05-06T04:54:50.321Z,2.77
2023-05-06T04:55:50.392Z,2.49
2023-05-06T04:56:50.444Z,2.74
2023-05-06T04:57:50.505Z,2.96
2023-05-06T04:58:50.593Z,2.73
2023-05-06T04:59:50.644Z,2.98
2023-05-06T05:00:50.684Z,2.88
2023-05-06T05:01:50.820Z,3.31
2023-05-06T05:02:50.922Z,3.00
2023-05-06T05:03:50.905Z,2.69
2023-05-06T05:04:50.934Z,2.88
2023-05-06T05:05:50.981Z,2.74
2023-05-06T05:06:51.058Z,3.02
2023-05-06T05:07:51.570Z,2.43
2023-05-06T05:08:51.233Z,3.06
2023-05-06T05:09:52.077Z,2.86
2023-05-06T05:10:51.275Z,2.88
2023-05-06T05:11:51.360Z,3.17
2023-05-06T05:12:51.444Z,2.91
2023-05-06T05:13:51.578Z,3.03
2023-05-06T05:14:51.537Z,3.05
2023-05-06T05:15:51.585Z,3.04
2023-05-06T05:16:51.695Z,2.52
2023-05-06T05:17:51.792Z,2.31
2023-05-06T05:18:51.761Z,2.70
2023-05-06T05:19:51.801Z,3.06
2023-05-06T05:20:51.866Z,2.89
2023-05-06T05:21:51.917Z,2.70
2023-05-06T05:22:51.971Z,2.78
2023-05-06T05:23:52.043Z,3.11
2023-05-06T05:24:52.450Z,2.46
2023-05-06T05:25:52.159Z,2.94
2023-05-06T05:26:52.208Z,2.97
2023-05-06T05:27:52.277Z,2.68
2023-05-06T05:28:52.346Z,2.65
2023-05-06T05:29:52.387Z,2.76
2023-05-06T05:30:52.465Z,3.02
2023-05-06T05:31:52.503Z,2.72
2023-05-06T05:32:52.694Z,3.22
2023-05-06T05:33:52.687Z,2.81
2023-05-06T05:34:52.689Z,3.15
2023-05-06T05:35:52.744Z,2.76
2023-05-06T05:36:52.800Z,3.28
2023-05-06T05:37:52.859Z,2.56
2023-05-06T05:38:52.920Z,2.92
2023-05-06T05:39:52.976Z,2.86
2023-05-06T05:40:53.047Z,2.86
2023-05-06T05:41:53.139Z,2.85
2023-05-06T05:42:53.159Z,2.40
2023-05-06T05:43:53.214Z,3.10
2023-05-06T05:44:53.268Z,3.19
2023-05-06T05:45:53.378Z,2.96
2023-05-06T05:46:53.383Z,3.21
2023-05-06T05:47:53.483Z,2.77
2023-05-06T05:48:53.524Z,2.99
2023-05-06T05:49:53.571Z,2.66
2023-05-06T05:50:53.631Z,2.58
2023-05-06T05:51:53.679Z,2.68
2023-05-06T05:52:54.582Z,2.71
2023-05-06T05:53:53.806Z,2.43
2023-05-06T05:54:53.865Z,3.01
2023-05-06T05:55:54.284Z,3.30
2023-05-06T05:56:54.034Z,2.63
2023-05-06T05:57:54.038Z,2.67
2023-05-06T05:58:54.102Z,3.27
2023-05-06T05:59:54.161Z,2.81
2023-05-06T06:00:54.216Z,2.63
2023-05-06T06:01:54.274Z,2.83
2023-05-06T06:02:54.390Z,2.92
2023-05-06T06:03:54.664Z,2.92
2023-05-06T06:04:55.154Z,2.72
2023-05-06T06:05:54.531Z,2.79
2023-05-06T06:06:54.558Z,2.61
2023-05-06T06:07:54.622Z,2.91
2023-05-06T06:08:54.669Z,2.60
2023-05-06T06:09:54.722Z,2.56
2023-05-06T06:10:54.780Z,2.34
2023-05-06T06:11:54.833Z,2.75
2023-05-06T06:12:54.920Z,3.07
2023-05-06T06:13:54.936Z,2.39
2023-05-06T06:14:54.992Z,2.24
2023-05-06T06:15:55.083Z,2.31
2023-05-06T06:16:55.096Z,2.90
2023-05-06T06:17:55.203Z,2.74
2023-05-06T06:18:55.210Z,3.00
2023-05-06T06:19:55.257Z,2.62
2023-05-06T06:20:55.306Z,3.16
2023-05-06T06:21:55.362Z,5.56
2023-05-06T06:22:55.404Z,2.82
2023-05-06T06:23:55.448Z,2.59
2023-05-06T06:24:55.488Z,2.79
2023-05-06T06:25:55.534Z,2.84
2023-05-06T06:26:55.562Z,2.49
2023-05-06T06:27:55.607Z,2.66
2023-05-06T06:28:55.702Z,2.34
2023-05-06T06:29:55.687Z,2.70
2023-05-06T06:30:55.746Z,2.15
2023-05-06T06:31:55.805Z,2.62
2023-05-06T06:32:55.923Z,2.62
2023-05-06T06:33:55.857Z,2.46
2023-05-06T06:34:55.901Z,2.93
2023-05-06T06:35:55.946Z,2.75
2023-05-06T06:36:55.945Z,3.04
2023-05-06T06:37:55.981Z,2.49
2023-05-06T06:38:56.005Z,2.35
2023-05-06T06:39:56.024Z,3.10
2023-05-06T06:40:56.049Z,2.38
2023-05-06T06:41:56.064Z,2.64
2023-05-06T06:42:56.107Z,2.46
2023-05-06T06:43:56.090Z,2.68
2023-05-06T06:44:56.156Z,2.72
2023-05-06T06:45:56.149Z,2.94
2023-05-06T06:46:56.119Z,2.72
2023-05-06T06:47:56.168Z,2.51
2023-05-06T06:48:56.150Z,2.98
2023-05-06T06:49:56.142Z,2.92
2023-05-06T06:50:56.142Z,2.86
2023-05-06T06:51:56.164Z,2.57
2023-05-06T06:52:56.164Z,2.64
2023-05-06T06:53:56.176Z,2.49
2023-05-06T06:54:56.174Z,2.09
2023-05-06T06:55:56.168Z,2.46
2023-05-06T06:56:56.220Z,2.41
2023-05-06T06:57:56.239Z,2.66
2023-05-06T06:58:56.276Z,2.29
2023-05-06T06:59:56.324Z,2.61
2023-05-06T07:00:56.413Z,2.57
2023-05-06T07:01:56.349Z,2.71
2023-05-06T07:02:56.383Z,2.67
2023-05-06T07:03:56.427Z,2.51
2023-05-06T07:04:56.398Z,2.90
2023-05-06T07:05:56.416Z,2.94
2023-05-06T07:06:56.524Z,2.41
2023-05-06T07:07:56.467Z,2.49
2023-05-06T07:08:56.489Z,2.55
2023-05-06T07:09:56.478Z,2.29
2023-05-06T07:10:56.500Z,2.51
2023-05-06T07:11:56.515Z,2.52
2023-05-06T07:12:56.627Z,2.62
2023-05-06T07:13:56.597Z,2.56
2023-05-06T07:14:56.636Z,2.78
2023-05-06T07:15:57.131Z,2.29
2023-05-06T07:16:56.838Z,2.71
2023-05-06T07:17:56.800Z,2.59
2023-05-06T07:18:56.828Z,3.02
2023-05-06T07:19:57.676Z,2.87
2023-05-06T07:20:56.932Z,2.76
2023-05-06T07:21:56.995Z,2.52
2023-05-06T07:22:57.145Z,2.76
2023-05-06T07:23:57.111Z,2.24
2023-05-06T07:24:57.183Z,2.26
2023-05-06T07:25:57.233Z,2.55
2023-05-06T07:26:57.267Z,2.70
2023-05-06T07:27:57.328Z,3.20
2023-05-06T07:28:57.410Z,2.94
2023-05-06T07:29:57.464Z,2.30
2023-05-06T07:30:57.540Z,2.26
2023-05-06T07:31:57.569Z,2.02
2023-05-06T07:32:57.660Z,2.75
2023-05-06T07:33:57.668Z,2.13
2023-05-06T07:34:57.761Z,2.06
2023-05-06T07:35:57.802Z,2.11
2023-05-06T07:36:58.625Z,2.92
2023-05-06T07:37:57.922Z,2.55
2023-05-06T07:38:57.983Z,2.35
2023-05-06T07:39:58.624Z,2.48
2023-05-06T07:40:58.099Z,2.54
2023-05-06T07:41:58.273Z,2.87
2023-05-06T07:42:58.212Z,2.57
2023-05-06T07:43:58.273Z,2.51
2023-05-06T07:44:58.349Z,2.71
2023-05-06T07:45:58.423Z,2.70
2023-05-06T07:46:58.542Z,2.34
2023-05-06T07:47:58.545Z,2.56
2023-05-06T07:48:58.551Z,2.62
2023-05-06T07:49:58.624Z,2.49
2023-05-06T07:50:58.628Z,2.09
2023-05-06T07:51:58.647Z,2.52
2023-05-06T07:52:58.684Z,2.41
2023-05-06T07:53:58.676Z,2.54
2023-05-06T07:54:58.688Z,2.82
2023-05-06T07:55:58.686Z,2.58
2023-05-06T07:56:58.679Z,2.63
2023-05-06T07:57:58.679Z,2.41
2023-05-06T07:58:58.689Z,2.42
2023-05-06T07:59:58.723Z,2.39
2023-05-06T08:00:58.686Z,2.56
2023-05-06T08:01:58.693Z,2.27
2023-05-06T08:02:58.817Z,2.55
2023-05-06T08:03:58.797Z,2.49
2023-05-06T08:04:58.803Z,2.34
2023-05-06T08:05:58.714Z,1.96
2023-05-06T08:06:58.742Z,2.55
2023-05-06T08:07:58.752Z,2.71
2023-05-06T08:08:58.745Z,2.36
2023-05-06T08:09:58.748Z,2.16
2023-05-06T08:10:58.797Z,3.00
2023-05-06T08:11:58.844Z,2.41
2023-05-06T08:12:58.822Z,2.17
2023-05-06T08:13:58.806Z,2.32
2023-05-06T08:14:58.813Z,2.53
2023-05-06T08:15:58.875Z,2.68
2023-05-06T08:16:58.845Z,2.48
2023-05-06T08:18:04.440Z,2.33
2023-05-06T08:18:59.902Z,2.10
2023-05-06T08:19:58.853Z,2.34
2023-05-06T08:20:59.211Z,2.22
2023-05-06T08:21:58.841Z,2.52
2023-05-06T08:22:58.836Z,2.44
2023-05-06T08:23:58.846Z,2.42
2023-05-06T08:24:58.821Z,2.36
2023-05-06T08:25:58.810Z,2.20
2023-05-06T08:26:58.810Z,2.31
2023-05-06T08:27:58.808Z,2.28
2023-05-06T08:28:58.831Z,2.35
2023-05-06T08:29:58.875Z,2.59
2023-05-06T08:30:58.792Z,2.79
2023-05-06T08:31:58.823Z,2.56
2023-05-06T08:32:58.885Z,2.51
2023-05-06T08:33:58.768Z,2.75
2023-05-06T08:34:58.755Z,2.48
2023-05-06T08:35:58.780Z,2.13
2023-05-06T08:36:58.785Z,2.73
2023-05-06T08:37:58.739Z,2.57
2023-05-06T08:38:58.725Z,2.40
2023-05-06T08:39:59.909Z,2.42
2023-05-06T08:40:58.757Z,2.46
2023-05-06T08:41:58.786Z,2.32
2023-05-06T08:42:59.168Z,2.24
2023-05-06T08:43:58.840Z,2.23
2023-05-06T08:44:58.855Z,2.45
2023-05-06T08:45:58.979Z,1.99
2023-05-06T08:46:58.903Z,2.06
2023-05-06T08:47:58.936Z,2.23
2023-05-06T08:48:58.951Z,2.57
2023-05-06T08:49:58.954Z,2.52
2023-05-06T08:50:58.984Z,2.69
2023-05-06T08:51:59.012Z,2.77
2023-05-06T08:52:59.072Z,2.00
2023-05-06T08:53:59.038Z,2.95
2023-05-06T08:54:59.055Z,1.79
2023-05-06T08:55:59.075Z,2.18
2023-05-06T08:56:59.077Z,2.13
2023-05-06T08:57:59.154Z,2.34
2023-05-06T08:58:59.141Z,2.40
2023-05-06T08:59:59.139Z,2.32
2023-05-06T09:00:59.205Z,2.27
2023-05-06T09:01:59.213Z,2.28
2023-05-06T09:02:59.289Z,2.25
2023-05-06T09:03:59.218Z,2.42
2023-05-06T09:04:59.313Z,2.42
2023-05-06T09:05:59.240Z,2.28
2023-05-06T09:06:59.255Z,2.37
2023-05-06T09:07:59.261Z,2.50
2023-05-06T09:08:59.406Z,2.63
2023-05-06T09:09:59.291Z,2.04
2023-05-06T09:10:59.302Z,2.15
2023-05-06T09:11:59.333Z,2.33
2023-05-06T09:12:59.376Z,2.07
2023-05-06T09:13:59.326Z,2.24
2023-05-06T09:14:59.329Z,2.35
2023-05-06T09:15:59.673Z,1.73
2023-05-06T09:16:59.373Z,2.57
2023-05-06T09:17:59.409Z,2.25
2023-05-06T09:18:59.338Z,2.10
2023-05-06T09:19:59.352Z,2.14
2023-05-06T09:21:00.647Z,2.10
2023-05-06T09:21:59.350Z,2.54
2023-05-06T09:22:59.370Z,2.85
2023-05-06T09:23:59.437Z,2.53
2023-05-06T09:24:59.522Z,2.53
2023-05-06T09:25:59.536Z,2.27
2023-05-06T09:26:59.590Z,2.14
2023-05-06T09:27:59.645Z,1.90
2023-05-06T09:28:59.705Z,2.32
2023-05-06T09:29:59.741Z,2.38
2023-05-06T09:30:59.831Z,2.40
2023-05-06T09:31:59.822Z,2.20
2023-05-06T09:32:59.866Z,2.45
2023-05-06T09:33:59.884Z,2.41
2023-05-06T09:34:59.915Z,2.47
2023-05-06T09:35:59.944Z,2.39
2023-05-06T09:36:59.975Z,2.41
2023-05-06T09:37:59.977Z,2.74
2023-05-06T09:39:00.008Z,2.09
2023-05-06T09:40:00.012Z,2.27
2023-05-06T09:41:00.115Z,2.21
2023-05-06T09:42:00.049Z,2.21
2023-05-06T09:43:00.081Z,2.45
2023-05-06T09:44:00.150Z,2.26
2023-05-06T09:45:01.579Z,2.32
2023-05-06T09:46:00.131Z,2.14
2023-05-06T09:47:00.100Z,2.31
2023-05-06T09:48:00.208Z,2.28
2023-05-06T09:49:00.163Z,2.32
2023-05-06T09:50:00.182Z,2.56
2023-05-06T09:51:01.235Z,2.25
2023-05-06T09:52:00.176Z,2.58
2023-05-06T09:53:00.216Z,2.44
2023-05-06T09:54:00.215Z,1.82
2023-05-06T09:55:00.228Z,2.27
2023-05-06T09:56:01.186Z,2.20
2023-05-06T09:57:01.024Z,2.25
2023-05-06T09:58:00.704Z,2.41
2023-05-06T09:59:00.321Z,2.48
2023-05-06T10:00:00.373Z,2.41
2023-05-06T10:01:00.362Z,2.31
2023-05-06T10:02:00.425Z,2.23
2023-05-06T10:03:00.515Z,2.20
2023-05-06T10:04:00.604Z,2.57
2023-05-06T10:05:00.688Z,2.06
2023-05-06T10:06:00.509Z,2.15
2023-05-06T10:07:00.556Z,2.56
2023-05-06T10:08:00.559Z,1.68
2023-05-06T10:09:00.567Z,2.67
2023-05-06T10:10:00.618Z,2.09
2023-05-06T10:11:00.640Z,2.24
2023-05-06T10:12:00.649Z,2.03
2023-05-06T10:13:00.757Z,2.23
2023-05-06T10:14:00.714Z,2.05
2023-05-06T10:15:01.049Z,2.51
2023-05-06T10:16:00.860Z,2.29
2023-05-06T10:17:00.780Z,1.76
2023-05-06T10:18:00.810Z,2.53
2023-05-06T10:19:01.212Z,2.50
2023-05-06T10:20:00.839Z,2.14
2023-05-06T10:21:00.849Z,2.34
2023-05-06T10:22:00.850Z,2.32
2023-05-06T10:23:00.880Z,2.26
2023-05-06T10:24:00.897Z,2.24
2023-05-06T10:25:00.895Z,2.36
2023-05-06T10:26:00.913Z,2.25
2023-05-06T10:27:00.925Z,3.78
2023-05-06T10:28:01.018Z,2.08
2023-05-06T10:29:00.995Z,2.24
2023-05-06T10:30:01.222Z,2.33
2023-05-06T10:31:01.028Z,2.45
2023-05-06T10:32:01.004Z,2.27
2023-05-06T10:33:00.987Z,1.78
2023-05-06T10:34:00.976Z,2.26
2023-05-06T10:35:00.982Z,2.25
2023-05-06T10:36:00.995Z,1.88
2023-05-06T10:37:01.020Z,1.99
2023-05-06T10:38:01.018Z,2.52
2023-05-06T10:39:01.049Z,2.14
2023-05-06T10:40:01.046Z,2.22
2023-05-06T10:41:01.066Z,2.05
2023-05-06T10:42:01.078Z,2.21
2023-05-06T10:43:01.078Z,2.15
2023-05-06T10:44:01.082Z,2.47
2023-05-06T10:45:01.170Z,1.97
2023-05-06T10:46:01.111Z,2.27
2023-05-06T10:47:01.113Z,2.26
2023-05-06T10:48:01.201Z,2.25
2023-05-06T10:49:01.138Z,2.06
2023-05-06T10:50:01.146Z,2.33
2023-05-06T10:51:01.157Z,2.93
2023-05-06T10:52:01.161Z,1.94
2023-05-06T10:53:01.174Z,2.00
2023-05-06T10:54:01.239Z,2.15
2023-05-06T10:55:01.191Z,1.97
2023-05-06T10:56:01.209Z,2.01
2023-05-06T10:57:01.232Z,1.96
2023-05-06T10:58:01.244Z,1.98
2023-05-06T10:59:01.267Z,2.33
2023-05-06T11:00:01.286Z,2.20
2023-05-06T11:01:01.449Z,2.00
2023-05-06T11:02:01.341Z,2.14
2023-05-06T11:03:01.443Z,2.29
2023-05-06T11:04:01.376Z,2.26
2023-05-06T11:05:01.368Z,2.27
2023-05-06T11:06:01.382Z,2.06
2023-05-06T11:07:01.395Z,2.37
2023-05-06T11:08:01.415Z,2.19
2023-05-06T11:09:01.436Z,2.56
2023-05-06T11:10:01.465Z,2.25
2023-05-06T11:11:01.468Z,1.80
2023-05-06T11:12:01.475Z,2.17
2023-05-06T11:13:01.565Z,2.02
2023-05-06T11:14:01.525Z,2.32
2023-05-06T11:15:01.561Z,2.28
2023-05-06T11:16:01.565Z,2.29
2023-05-06T11:17:01.889Z,1.80
2023-05-06T11:18:01.660Z,1.90
2023-05-06T11:19:01.638Z,2.16
2023-05-06T11:20:01.649Z,2.39
2023-05-06T11:21:01.688Z,2.02
2023-05-06T11:22:01.750Z,2.09
2023-05-06T11:23:01.732Z,2.09
2023-05-06T11:24:01.760Z,2.01
2023-05-06T11:25:01.776Z,2.25
2023-05-06T11:26:01.849Z,2.09
2023-05-06T11:27:01.842Z,2.42
2023-05-06T11:28:02.720Z,1.99
2023-05-06T11:29:01.909Z,2.12
2023-05-06T11:30:01.967Z,2.05
2023-05-06T11:31:01.999Z,2.03
2023-05-06T11:32:01.996Z,2.21
2023-05-06T11:33:04.562Z,2.65
2023-05-06T11:34:02.027Z,2.16
2023-05-06T11:35:02.023Z,2.06
2023-05-06T11:36:02.012Z,2.14
2023-05-06T11:37:02.008Z,2.04
2023-05-06T11:38:02.037Z,2.58
2023-05-06T11:39:03.519Z,2.36
2023-05-06T11:40:01.990Z,2.30
2023-05-06T11:41:01.987Z,2.43
2023-05-06T11:42:01.975Z,2.29
2023-05-06T11:43:01.969Z,2.22
2023-05-06T11:44:01.956Z,1.88
2023-05-06T11:45:01.992Z,2.29
2023-05-06T11:46:01.964Z,2.16
2023-05-06T11:47:01.940Z,2.01
2023-05-06T11:48:02.001Z,1.99
2023-05-06T11:49:02.165Z,2.28
2023-05-06T11:50:01.922Z,1.84
2023-05-06T11:51:01.909Z,2.39
2023-05-06T11:52:01.904Z,1.89
2023-05-06T11:53:01.895Z,1.89
2023-05-06T11:54:01.892Z,1.87
2023-05-06T11:55:02.729Z,1.98
2023-05-06T11:56:01.876Z,2.07
2023-05-06T11:57:01.856Z,1.76
2023-05-06T11:58:01.853Z,2.17
2023-05-06T11:59:01.857Z,2.22
2023-05-06T12:00:01.877Z,2.53
2023-05-06T12:01:01.849Z,1.85
2023-05-06T12:02:01.891Z,2.49
2023-05-06T12:03:01.869Z,2.07
2023-05-06T12:04:02.027Z,1.71
2023-05-06T12:05:01.822Z,2.17
2023-05-06T12:06:01.813Z,2.14
2023-05-06T12:07:01.791Z,2.18
2023-05-06T12:08:01.784Z,2.25
2023-05-06T12:09:01.785Z,2.39
2023-05-06T12:10:01.836Z,2.07
2023-05-06T12:11:01.789Z,1.78
2023-05-06T12:12:02.741Z,1.79
2023-05-06T12:13:01.789Z,1.85
2023-05-06T12:14:01.747Z,2.17
2023-05-06T12:15:01.739Z,1.92
2023-05-06T12:16:01.779Z,1.99
2023-05-06T12:17:01.724Z,2.16
2023-05-06T12:18:01.806Z,2.29
2023-05-06T12:19:01.733Z,2.37
2023-05-06T12:20:01.729Z,1.81
2023-05-06T12:21:01.753Z,2.32
2023-05-06T12:22:01.696Z,2.10
2023-05-06T12:23:01.687Z,2.38
2023-05-06T12:24:01.779Z,1.98
2023-05-06T12:25:01.783Z,1.72
2023-05-06T12:26:01.839Z,1.61
2023-05-06T12:27:01.891Z,1.99
2023-05-06T12:28:01.987Z,1.92
2023-05-06T12:29:01.985Z,2.17
2023-05-06T12:30:02.049Z,1.73
2023-05-06T12:31:02.095Z,1.94
2023-05-06T12:32:02.258Z,2.15
2023-05-06T12:33:02.264Z,2.51
2023-05-06T12:34:02.246Z,1.86
2023-05-06T12:35:03.250Z,1.70
2023-05-06T12:36:02.366Z,1.95
2023-05-06T12:37:02.405Z,1.91
2023-05-06T12:38:02.465Z,1.72
2023-05-06T12:39:02.516Z,2.16
2023-05-06T12:40:02.656Z,1.98
2023-05-06T12:41:02.622Z,1.98
2023-05-06T12:42:02.682Z,2.12
2023-05-06T12:43:02.723Z,2.27
2023-05-06T12:44:02.784Z,2.39
2023-05-06T12:45:02.825Z,2.23
2023-05-06T12:46:03.026Z,2.40
2023-05-06T12:47:02.943Z,2.04
2023-05-06T12:48:03.043Z,2.03
2023-05-06T12:49:03.091Z,2.40
2023-05-06T12:50:03.124Z,2.30
2023-05-06T12:51:03.179Z,2.08
2023-05-06T12:52:03.227Z,2.18
2023-05-06T12:53:03.342Z,2.30
2023-05-06T12:54:03.339Z,1.92
2023-05-06T12:55:03.399Z,2.16
2023-05-06T12:56:03.483Z,1.96
2023-05-06T12:57:04.268Z,1.80
2023-05-06T12:58:03.574Z,1.87
2023-05-06T12:59:03.633Z,1.92
2023-05-06T13:00:03.698Z,2.18
2023-05-06T13:01:03.793Z,1.83
2023-05-06T13:02:03.820Z,1.92
2023-05-06T13:03:03.981Z,2.01
2023-05-06T13:04:03.930Z,1.88
2023-05-06T13:05:04.011Z,1.81
2023-05-06T13:06:04.045Z,2.06
2023-05-06T13:07:04.087Z,1.97
2023-05-06T13:08:04.145Z,2.01
2023-05-06T13:09:04.306Z,1.99
2023-05-06T13:10:04.267Z,2.14
2023-05-06T13:11:04.332Z,2.11
2023-05-06T13:12:04.365Z,1.99
2023-05-06T13:13:04.445Z,2.21
2023-05-06T13:14:04.492Z,2.24
2023-05-06T13:15:04.521Z,1.94
2023-05-06T13:16:04.595Z,1.88
2023-05-06T13:17:04.760Z,1.73
2023-05-06T13:18:04.783Z,1.92
2023-05-06T13:19:05.261Z,2.13